createdAt,value
2017-05-26T00:01:55.943Z,74.60
2017-05-26T00:04:26.396Z,74.40
2017-05-26T00:06:56.915Z,74.20
2017-05-26T00:09:27.365Z,74.20
2017-05-26T00:11:57.842Z,74.00
2017-05-26T00:14:28.310Z,73.90
2017-05-26T00:16:58.867Z,73.90
2017-05-26T00:19:29.352Z,73.90
2017-05-26T00:21:59.824Z,74.00
2017-05-26T00:24:30.296Z,73.90
2017-05-26T00:27:00.766Z,74.20
2017-05-26T00:29:31.229Z,74.10
2017-05-26T00:32:01.712Z,74.00
2017-05-26T00:34:32.170Z,73.90
2017-05-26T00:37:02.631Z,74.10
2017-05-26T00:39:33.104Z,74.20
2017-05-26T00:42:03.585Z,74.30
2017-05-26T00:44:34.073Z,74.30
2017-05-26T00:47:04.557Z,74.60
2017-05-26T00:49:35.021Z,75.00
2017-05-26T00:52:05.491Z,75.20
2017-05-26T00:54:35.939Z,75.50
2017-05-26T00:57:06.404Z,75.70
2017-05-26T00:59:36.853Z,75.90
2017-05-26T01:02:07.325Z,76.10
2017-05-26T01:04:37.775Z,76.40
2017-05-26T01:07:08.259Z,76.60
2017-05-26T01:09:38.712Z,76.80
2017-05-26T01:12:09.211Z,77.40
2017-05-26T01:14:39.702Z,78.00
2017-05-26T01:17:10.167Z,78.40
2017-05-26T01:19:40.286Z,78.70
2017-05-26T01:22:10.763Z,79.00
2017-05-26T01:24:41.042Z,79.50
2017-05-26T01:27:11.497Z,79.70
2017-05-26T01:29:41.954Z,80.00
2017-05-26T01:32:12.763Z,80.60
2017-05-26T01:34:43.322Z,81.10
2017-05-26T01:37:13.122Z,82.40
2017-05-26T01:39:43.394Z,82.30
2017-05-26T01:42:13.848Z,82.70
2017-05-26T01:44:44.334Z,83.30
2017-05-26T01:47:14.783Z,83.80
2017-05-26T01:49:45.260Z,84.00
2017-05-26T01:52:15.521Z,84.30
2017-05-26T01:54:46.033Z,84.80
2017-05-26T01:57:16.483Z,85.30
2017-05-26T01:59:46.964Z,85.80
2017-05-26T02:02:17.438Z,86.00
2017-05-26T02:04:47.933Z,86.20
2017-05-26T02:07:18.400Z,86.70
2017-05-26T02:09:48.870Z,86.90
2017-05-26T02:12:19.353Z,87.10
2017-05-26T02:14:49.820Z,87.30
2017-05-26T02:17:20.297Z,87.40
2017-05-26T02:19:50.745Z,88.60
2017-05-26T02:22:21.228Z,88.60
2017-05-26T02:24:51.692Z,88.60
2017-05-26T02:27:22.194Z,89.10
2017-05-26T02:29:52.663Z,89.50
2017-05-26T02:32:23.157Z,89.90
2017-05-26T02:34:53.615Z,90.00
2017-05-26T02:37:24.104Z,90.00
2017-05-26T02:39:54.579Z,90.10
2017-05-26T02:42:25.065Z,90.20
2017-05-26T02:44:55.528Z,90.20
2017-05-26T02:47:26.031Z,90.20
2017-05-26T02:49:56.499Z,90.20
2017-05-26T02:52:26.624Z,90.40
2017-05-26T02:54:57.087Z,90.40
2017-05-26T02:57:27.564Z,90.50
2017-05-26T02:59:58.041Z,90.60
2017-05-26T03:02:28.596Z,90.90
2017-05-26T03:04:59.071Z,91.10
2017-05-26T03:07:29.866Z,91.10
2017-05-26T03:10:00.496Z,91.40
2017-05-26T03:12:30.972Z,91.30
2017-05-26T03:15:01.444Z,91.30
2017-05-26T03:17:31.916Z,91.50
2017-05-26T03:20:02.395Z,91.60
2017-05-26T03:22:32.879Z,91.60
2017-05-26T03:25:03.346Z,91.70
2017-05-26T03:27:33.821Z,91.90
2017-05-26T03:30:04.288Z,91.80
2017-05-26T03:32:34.785Z,91.90
2017-05-26T03:35:05.247Z,91.80
2017-05-26T03:37:35.736Z,91.70
2017-05-26T03:40:06.230Z,91.80
2017-05-26T03:42:36.716Z,91.80
2017-05-26T03:45:07.196Z,91.70
2017-05-26T03:47:37.701Z,91.70
2017-05-26T03:50:08.164Z,91.70
2017-05-26T03:52:38.681Z,91.70
2017-05-26T03:55:09.173Z,91.70
2017-05-26T03:57:39.666Z,91.80
2017-05-26T04:00:10.175Z,91.90
2017-05-26T04:02:40.497Z,91.90
2017-05-26T04:05:10.956Z,91.90
2017-05-26T04:07:41.460Z,92.00
2017-05-26T04:10:11.928Z,92.30
2017-05-26T04:12:42.432Z,92.00
2017-05-26T04:15:12.715Z,92.00
2017-05-26T04:17:43.265Z,91.90
2017-05-26T04:20:13.731Z,91.90
2017-05-26T04:22:44.218Z,91.80
2017-05-26T04:25:14.715Z,91.90
2017-05-26T04:27:45.225Z,91.90
2017-05-26T04:30:15.712Z,91.80
2017-05-26T04:32:46.203Z,91.70
2017-05-26T04:35:16.734Z,91.70
2017-05-26T04:37:47.205Z,91.60
2017-05-26T04:40:17.672Z,91.50
2017-05-26T04:42:47.968Z,91.30
2017-05-26T04:45:18.236Z,91.20
2017-05-26T04:47:48.741Z,91.10
2017-05-26T04:50:19.234Z,90.90
2017-05-26T04:52:49.535Z,91.00
2017-05-26T04:55:20.041Z,90.60
2017-05-26T04:57:50.540Z,90.60
2017-05-26T05:00:21.044Z,90.60
2017-05-26T05:02:51.513Z,90.50
2017-05-26T05:05:21.796Z,90.40
2017-05-26T05:07:52.272Z,90.30
2017-05-26T05:10:22.792Z,90.10
2017-05-26T05:12:53.398Z,90.10
2017-05-26T05:15:23.879Z,90.10
2017-05-26T05:17:54.365Z,90.00
2017-05-26T05:20:24.872Z,90.20
2017-05-26T05:22:55.332Z,90.20
2017-05-26T05:25:25.836Z,90.50
2017-05-26T05:27:56.320Z,90.60
2017-05-26T05:30:26.823Z,90.60
2017-05-26T05:32:59.368Z,90.90
2017-05-26T05:35:29.868Z,90.90
2017-05-26T05:38:00.392Z,91.00
2017-05-26T05:40:30.907Z,91.20
2017-05-26T05:43:01.383Z,91.20
2017-05-26T05:45:31.874Z,91.10
2017-05-26T05:48:02.887Z,91.30
2017-05-26T05:50:33.543Z,91.50
2017-05-26T05:53:04.004Z,91.40
2017-05-26T05:55:34.516Z,91.40
2017-05-26T05:58:05.338Z,91.40
2017-05-26T06:00:35.829Z,91.50
2017-05-26T06:03:06.309Z,91.40
2017-05-26T06:05:36.801Z,91.40
2017-05-26T06:08:07.289Z,90.90
2017-05-26T06:10:37.786Z,91.00
2017-05-26T06:13:08.338Z,91.00
2017-05-26T06:15:38.823Z,91.00
2017-05-26T06:18:09.303Z,91.10
2017-05-26T06:20:39.840Z,91.20
2017-05-26T06:23:10.323Z,91.40
2017-05-26T06:25:40.813Z,91.20
2017-05-26T06:28:11.318Z,91.10
2017-05-26T06:30:41.797Z,90.80
2017-05-26T06:33:12.264Z,90.80
2017-05-26T06:35:42.760Z,90.80
2017-05-26T06:38:13.253Z,91.00
2017-05-26T06:40:43.988Z,90.90
2017-05-26T06:43:14.552Z,90.80
2017-05-26T06:45:45.067Z,90.70
2017-05-26T06:48:15.570Z,90.70
2017-05-26T06:50:46.074Z,90.70
2017-05-26T06:53:16.580Z,90.60
2017-05-26T06:55:47.142Z,90.50
2017-05-26T06:58:17.631Z,90.20
2017-05-26T07:00:48.156Z,90.40
2017-05-26T07:03:18.292Z,90.20
2017-05-26T07:05:48.820Z,90.00
2017-05-26T07:08:19.339Z,89.90
2017-05-26T07:10:49.837Z,89.10
2017-05-26T07:13:20.356Z,89.30
2017-05-26T07:15:50.925Z,89.70
2017-05-26T07:18:21.391Z,90.00
2017-05-26T07:20:51.879Z,90.00
2017-05-26T07:23:22.485Z,89.60
2017-05-26T07:25:53.007Z,89.20
2017-05-26T07:28:24.209Z,88.40
2017-05-26T07:30:54.736Z,88.60
2017-05-26T07:33:25.213Z,88.20
2017-05-26T07:35:55.714Z,87.80
2017-05-26T07:38:26.176Z,87.10
2017-05-26T07:40:56.677Z,87.70
2017-05-26T07:43:27.842Z,88.30
2017-05-26T07:45:58.373Z,88.20
2017-05-26T07:48:29.058Z,89.00
2017-05-26T07:50:59.543Z,88.80
2017-05-26T07:53:30.148Z,88.80
2017-05-26T07:56:00.641Z,88.90
2017-05-26T07:58:31.124Z,88.10
2017-05-26T08:01:01.613Z,87.40
2017-05-26T08:03:32.238Z,86.50
2017-05-26T08:06:02.760Z,85.90
2017-05-26T08:08:34.479Z,85.60
2017-05-26T08:11:05.005Z,84.50
2017-05-26T08:16:12.416Z,83.90
2017-05-26T08:18:42.890Z,84.00
2017-05-26T08:21:13.390Z,83.70
2017-05-26T08:23:43.874Z,83.70
2017-05-26T08:26:15.885Z,84.00
2017-05-26T08:28:46.353Z,84.40
2017-05-26T08:31:16.848Z,83.90
2017-05-26T08:33:47.321Z,82.90
2017-05-26T08:36:17.849Z,82.60
2017-05-26T08:38:48.380Z,81.70
2017-05-26T08:41:18.872Z,81.30
2017-05-26T08:43:49.437Z,80.40
2017-05-26T08:46:20.064Z,79.80
2017-05-26T08:48:50.541Z,79.00
2017-05-26T08:51:21.077Z,78.40
2017-05-26T08:53:51.561Z,78.20
2017-05-26T08:56:22.055Z,78.50
2017-05-26T08:58:52.537Z,78.60
2017-05-26T09:01:23.038Z,79.00
2017-05-26T09:03:53.528Z,78.00
2017-05-26T09:06:23.766Z,76.00
2017-05-26T09:08:53.961Z,75.00
2017-05-26T09:11:24.353Z,74.60
2017-05-26T09:13:54.575Z,72.90
2017-05-26T09:16:24.798Z,70.20
2017-05-26T09:18:54.939Z,69.40
2017-05-26T09:21:25.153Z,69.70
2017-05-26T09:23:55.480Z,69.10
2017-05-26T09:26:25.721Z,69.40
2017-05-26T09:28:56.272Z,71.10
2017-05-26T09:31:26.629Z,70.20
2017-05-26T09:33:56.825Z,70.50
2017-05-26T09:36:27.092Z,67.60
2017-05-26T09:38:57.298Z,64.50
2017-05-26T09:41:27.536Z,61.80
2017-05-26T09:43:57.736Z,61.40
2017-05-26T09:46:27.951Z,61.00
2017-05-26T09:48:58.138Z,63.80
2017-05-26T09:51:28.392Z,63.90
2017-05-26T09:53:58.584Z,62.70
2017-05-26T09:56:28.801Z,59.40
2017-05-26T09:58:59.101Z,56.60
2017-05-26T10:01:29.694Z,57.40
2017-05-26T10:03:59.904Z,59.80
2017-05-26T10:06:30.147Z,60.40
2017-05-26T10:09:00.405Z,59.60
2017-05-26T10:11:30.619Z,59.20
2017-05-26T10:14:00.872Z,56.20
2017-05-26T10:16:31.094Z,54.50
2017-05-26T10:19:01.330Z,51.70
2017-05-26T10:21:31.565Z,51.20
2017-05-26T10:24:01.788Z,49.90
2017-05-26T10:26:31.979Z,49.90
2017-05-26T10:29:02.219Z,48.80
2017-05-26T10:31:32.507Z,49.10
2017-05-26T10:34:02.773Z,48.80
2017-05-26T10:36:32.960Z,50.40
2017-05-26T10:39:03.176Z,50.00
2017-05-26T10:41:33.412Z,51.00
2017-05-26T10:44:03.661Z,50.90
2017-05-26T10:46:33.865Z,50.50
2017-05-26T10:49:04.058Z,49.10
2017-05-26T10:51:34.273Z,47.60
2017-05-26T10:54:04.482Z,47.50
2017-05-26T10:56:34.698Z,47.10
2017-05-26T10:59:04.886Z,48.80
2017-05-26T11:01:35.167Z,48.70
2017-05-26T11:04:05.348Z,48.70
2017-05-26T11:06:35.560Z,49.50
2017-05-26T11:09:05.444Z,49.30
2017-05-26T11:11:35.655Z,47.50
2017-05-26T11:14:05.886Z,45.60
2017-05-26T11:16:36.098Z,45.70
2017-05-26T11:19:06.285Z,46.20
2017-05-26T11:21:36.672Z,46.10
2017-05-26T11:24:06.860Z,46.90
2017-05-26T11:26:37.073Z,46.60
2017-05-26T11:29:07.318Z,45.60
2017-05-26T11:31:37.571Z,44.70
2017-05-26T11:34:07.783Z,45.10
2017-05-26T11:36:38.007Z,44.20
2017-05-26T11:39:08.220Z,43.90
2017-05-26T11:41:38.449Z,42.60
2017-05-26T11:44:09.198Z,42.10
2017-05-26T11:46:39.400Z,42.30
2017-05-26T11:49:09.597Z,42.40
2017-05-26T11:51:39.783Z,41.00
2017-05-26T11:54:09.988Z,40.90
2017-05-26T11:56:40.196Z,40.40
2017-05-26T11:59:10.389Z,40.60
2017-05-26T12:01:40.630Z,41.90
2017-05-26T12:04:10.828Z,40.60
2017-05-26T12:06:41.008Z,38.70
2017-05-26T12:09:11.210Z,40.10
2017-05-26T12:11:41.407Z,41.00
2017-05-26T12:14:11.628Z,42.20
2017-05-26T12:16:41.643Z,40.70
2017-05-26T12:19:11.849Z,37.90
2017-05-26T12:21:42.021Z,38.10
2017-05-26T12:24:12.227Z,36.90
2017-05-26T12:26:42.408Z,37.50
2017-05-26T12:29:12.618Z,35.50
2017-05-26T12:31:42.794Z,35.00
2017-05-26T12:34:13.009Z,34.60
2017-05-26T12:36:43.201Z,34.40
2017-05-26T12:39:13.401Z,34.20
2017-05-26T12:41:43.613Z,34.00
2017-05-26T12:44:13.817Z,33.80
2017-05-26T12:46:44.021Z,33.60
2017-05-26T12:49:14.243Z,34.10
2017-05-26T12:51:44.237Z,33.70
2017-05-26T12:54:14.432Z,33.00
2017-05-26T12:56:44.644Z,34.40
2017-05-26T12:59:14.835Z,36.00
2017-05-26T13:01:45.032Z,37.80
2017-05-26T13:04:15.289Z,38.30
2017-05-26T13:06:45.608Z,38.70
2017-05-26T13:09:15.799Z,40.90
2017-05-26T13:11:45.995Z,41.90
2017-05-26T13:14:16.173Z,40.10
2017-05-26T13:16:46.374Z,42.10
2017-05-26T13:19:16.557Z,43.70
2017-05-26T13:21:46.759Z,45.40
2017-05-26T13:24:16.943Z,47.30
2017-05-26T13:26:47.149Z,47.50
2017-05-26T13:29:17.334Z,47.80
2017-05-26T13:31:47.544Z,46.00
2017-05-26T13:34:17.768Z,46.30
2017-05-26T13:36:47.979Z,43.90
2017-05-26T13:39:18.173Z,42.20
2017-05-26T13:41:48.356Z,41.30
2017-05-26T13:44:18.664Z,41.10
2017-05-26T13:46:48.872Z,40.60
2017-05-26T13:49:19.080Z,39.00
2017-05-26T13:51:49.279Z,36.60
2017-05-26T13:54:19.516Z,34.50
2017-05-26T13:56:49.708Z,34.30
2017-05-26T13:59:19.915Z,33.60
2017-05-26T14:01:50.106Z,32.80
2017-05-26T14:04:20.329Z,32.70
2017-05-26T14:06:50.536Z,31.70
2017-05-26T14:09:20.751Z,33.00
2017-05-26T14:11:51.047Z,33.90
2017-05-26T14:14:21.305Z,33.60
2017-05-26T14:16:51.492Z,33.90
2017-05-26T14:19:21.688Z,35.60
2017-05-26T14:21:51.886Z,38.40
2017-05-26T14:24:22.087Z,40.60
2017-05-26T14:26:52.271Z,41.60
2017-05-26T14:29:22.468Z,43.20
2017-05-26T14:31:52.677Z,44.60
2017-05-26T14:34:22.862Z,44.20
2017-05-26T14:36:53.051Z,45.20
2017-05-26T14:39:23.250Z,45.60
2017-05-26T14:41:53.444Z,43.90
2017-05-26T14:44:23.659Z,47.80
2017-05-26T14:46:53.860Z,43.90
2017-05-26T14:49:24.054Z,42.30
2017-05-26T14:51:54.255Z,41.80
2017-05-26T14:54:24.460Z,41.10
2017-05-26T14:56:54.656Z,41.80
2017-05-26T14:59:24.841Z,42.20
2017-05-26T15:01:55.046Z,43.00
2017-05-26T15:04:25.262Z,43.60
2017-05-26T15:06:55.455Z,44.30
2017-05-26T15:09:25.647Z,44.00
2017-05-26T15:11:55.844Z,44.50
2017-05-26T15:14:26.160Z,44.30
2017-05-26T15:16:56.371Z,43.80
2017-05-26T15:19:26.664Z,44.30
2017-05-26T15:21:56.904Z,44.50
2017-05-26T15:24:27.095Z,44.40
2017-05-26T15:26:57.301Z,45.50
2017-05-26T15:29:27.512Z,46.20
2017-05-26T15:31:57.727Z,46.10
2017-05-26T15:34:27.907Z,46.60
2017-05-26T15:36:58.120Z,47.10
2017-05-26T15:39:28.325Z,48.10
2017-05-26T15:41:58.516Z,48.10
2017-05-26T15:44:28.713Z,49.20
2017-05-26T15:46:58.939Z,48.80
2017-05-26T15:49:29.117Z,49.60
2017-05-26T15:51:59.333Z,48.50
2017-05-26T15:54:29.543Z,47.80
2017-05-26T15:56:59.846Z,48.20
2017-05-26T15:59:30.081Z,48.20
2017-05-26T16:02:00.370Z,46.70
2017-05-26T16:04:30.569Z,46.70
2017-05-26T16:07:00.824Z,47.50
2017-05-26T16:09:31.025Z,47.50
2017-05-26T16:12:01.241Z,47.50
2017-05-26T16:14:31.438Z,48.30
2017-05-26T16:17:01.641Z,48.40
2017-05-26T16:19:31.844Z,48.40
2017-05-26T16:22:02.057Z,48.50
2017-05-26T16:24:32.297Z,48.70
2017-05-26T16:27:02.536Z,48.40
2017-05-26T16:29:32.817Z,48.60
2017-05-26T16:32:02.991Z,49.60
2017-05-26T16:34:33.247Z,50.50
2017-05-26T16:37:03.457Z,49.60
2017-05-26T16:39:33.661Z,50.60
2017-05-26T16:42:03.843Z,50.30
2017-05-26T16:44:34.040Z,50.60
2017-05-26T16:47:04.232Z,52.10
2017-05-26T16:49:34.497Z,51.50
2017-05-26T16:52:04.677Z,50.80
2017-05-26T16:54:34.897Z,50.50
2017-05-26T16:57:05.100Z,51.00
2017-05-26T16:59:35.326Z,51.00
2017-05-26T17:02:05.528Z,51.20
2017-05-26T17:04:35.727Z,51.30
2017-05-26T17:07:06.150Z,51.80
2017-05-26T17:09:36.397Z,51.80
2017-05-26T17:12:06.608Z,52.00
2017-05-26T17:14:36.813Z,52.50
2017-05-26T17:17:06.992Z,52.50
2017-05-26T17:19:37.218Z,52.60
2017-05-26T17:22:07.443Z,52.70
2017-05-26T17:24:37.684Z,53.10
2017-05-26T17:27:08.749Z,53.30
2017-05-26T17:29:40.217Z,53.70
2017-05-26T17:32:10.443Z,53.70
2017-05-26T17:34:40.669Z,53.50
2017-05-26T17:37:10.871Z,53.70
2017-05-26T17:39:41.476Z,53.90
2017-05-26T17:42:13.193Z,53.70
2017-05-26T17:44:43.417Z,53.90
2017-05-26T17:47:13.994Z,54.00
2017-05-26T17:49:44.244Z,54.40
2017-05-26T17:52:14.436Z,54.40
2017-05-26T17:54:45.582Z,54.40
2017-05-26T17:57:15.789Z,54.70
2017-05-26T17:59:46.037Z,54.60
2017-05-26T18:02:16.368Z,54.90
2017-05-26T18:04:46.692Z,55.30
2017-05-26T18:07:17.407Z,55.40
2017-05-26T18:09:47.756Z,55.40
2017-05-26T18:12:17.967Z,55.10
2017-05-26T18:14:48.172Z,55.10
2017-05-26T18:17:18.388Z,55.80
2017-05-26T18:19:48.589Z,56.00
2017-05-26T18:22:18.824Z,56.00
2017-05-26T18:24:49.033Z,56.10
2017-05-26T18:27:19.264Z,56.70
2017-05-26T18:29:49.632Z,57.60
2017-05-26T18:32:19.868Z,57.40
2017-05-26T18:34:50.108Z,57.40
2017-05-26T18:37:20.341Z,57.50
2017-05-26T18:39:50.566Z,58.10
2017-05-26T18:42:20.975Z,57.90
2017-05-26T18:44:51.256Z,58.00
2017-05-26T18:47:21.473Z,57.80
2017-05-26T18:49:51.721Z,58.20
2017-05-26T18:52:21.929Z,58.30
2017-05-26T18:54:52.146Z,59.00
2017-05-26T18:57:22.332Z,59.20
2017-05-26T18:59:52.547Z,59.40
2017-05-26T19:02:22.768Z,59.70
2017-05-26T19:04:53.002Z,60.10
2017-05-26T19:07:23.259Z,60.20
2017-05-26T19:09:53.472Z,60.50
2017-05-26T19:12:23.428Z,60.70
2017-05-26T19:14:53.664Z,61.10
2017-05-26T19:17:23.868Z,61.40
2017-05-26T19:19:53.992Z,61.60
2017-05-26T19:22:24.802Z,61.90
2017-05-26T19:24:55.019Z,61.80
2017-05-26T19:27:25.210Z,62.60
2017-05-26T19:29:55.997Z,62.90
2017-05-26T19:32:26.226Z,63.10
2017-05-26T19:34:56.694Z,63.90
2017-05-26T19:37:26.919Z,64.40
2017-05-26T19:39:57.141Z,64.60
2017-05-26T19:42:27.383Z,64.80
2017-05-26T19:44:57.617Z,65.20
2017-05-26T19:47:27.813Z,65.50
2017-05-26T19:49:58.024Z,65.40
2017-05-26T19:52:28.209Z,66.40
2017-05-26T19:54:58.679Z,66.10
2017-05-26T19:57:28.881Z,66.30
2017-05-26T19:59:59.093Z,66.90
2017-05-26T20:02:29.309Z,67.10
2017-05-26T20:04:59.524Z,68.00
2017-05-26T20:07:29.727Z,68.10
2017-05-26T20:09:59.945Z,67.90
2017-05-26T20:12:30.148Z,67.90
2017-05-26T20:15:00.373Z,68.20
2017-05-26T20:17:30.423Z,67.90
2017-05-26T20:20:00.611Z,68.20
2017-05-26T20:22:30.820Z,68.00
2017-05-26T20:25:01.004Z,68.80
2017-05-26T20:27:31.221Z,68.70
2017-05-26T20:30:01.684Z,69.00
2017-05-26T20:32:31.723Z,69.30
2017-05-26T20:35:01.927Z,69.50
2017-05-26T20:37:32.424Z,69.30
2017-05-26T20:40:02.615Z,69.70
2017-05-26T20:42:32.837Z,70.10
2017-05-26T20:45:03.315Z,70.00
2017-05-26T20:47:33.838Z,70.60
2017-05-26T20:50:04.324Z,70.50
2017-05-26T20:52:34.527Z,70.70
2017-05-26T20:55:04.993Z,71.20
2017-05-26T20:57:35.491Z,71.50
2017-05-26T21:00:05.676Z,71.60
2017-05-26T21:02:35.877Z,71.90
2017-05-26T21:05:06.077Z,72.70
2017-05-26T21:07:36.554Z,73.10
2017-05-26T21:10:06.756Z,73.20
2017-05-26T21:12:37.228Z,73.00
2017-05-26T21:15:07.684Z,73.30
2017-05-26T21:17:38.198Z,72.90
2017-05-26T21:20:08.670Z,73.40
2017-05-26T21:22:39.153Z,73.50
2017-05-26T21:25:09.606Z,73.40
2017-05-26T21:27:40.105Z,73.70
2017-05-26T21:30:10.563Z,74.50
2017-05-26T21:32:40.769Z,73.60
2017-05-26T21:35:11.245Z,74.10
2017-05-26T21:37:42.608Z,74.00
2017-05-26T21:40:13.267Z,74.20
2017-05-26T21:42:43.752Z,74.40
2017-05-26T21:45:14.253Z,74.60
2017-05-26T21:47:44.720Z,75.10
2017-05-26T21:50:15.195Z,75.20
2017-05-26T21:52:45.648Z,75.40
2017-05-26T21:55:16.137Z,75.80
2017-05-26T21:57:46.254Z,76.20
2017-05-26T22:00:16.879Z,76.10
2017-05-26T22:02:47.127Z,76.40
2017-05-26T22:05:17.746Z,76.40
2017-05-26T22:07:48.215Z,77.00
2017-05-26T22:10:18.699Z,76.50
2017-05-26T22:12:49.163Z,76.80
2017-05-26T22:15:19.445Z,77.40
2017-05-26T22:17:49.901Z,77.40
2017-05-26T22:20:20.363Z,77.50
2017-05-26T22:22:50.827Z,77.90
2017-05-26T22:25:21.324Z,77.90
2017-05-26T22:27:51.785Z,78.00
2017-05-26T22:30:22.280Z,78.10
2017-05-26T22:32:52.738Z,78.30
2017-05-26T22:35:23.218Z,78.30
2017-05-26T22:37:53.719Z,78.50
2017-05-26T22:40:24.217Z,78.90
2017-05-26T22:42:54.692Z,79.10
2017-05-26T22:45:25.213Z,79.10
2017-05-26T22:47:55.692Z,79.10
2017-05-26T22:50:26.167Z,79.10
2017-05-26T22:52:56.637Z,79.20
2017-05-26T22:55:27.287Z,79.20
2017-05-26T22:57:57.789Z,79.30
2017-05-26T23:00:28.260Z,79.50
2017-05-26T23:02:58.716Z,80.20
2017-05-26T23:05:29.188Z,80.30
2017-05-26T23:07:59.659Z,80.30
2017-05-26T23:10:30.143Z,80.70
2017-05-26T23:13:00.604Z,80.90
2017-05-26T23:15:31.109Z,81.10
2017-05-26T23:18:01.576Z,81.20
2017-05-26T23:20:32.056Z,81.80
2017-05-26T23:23:02.900Z,82.10
2017-05-26T23:25:33.235Z,82.30
2017-05-26T23:28:04.400Z,82.50
2017-05-26T23:30:34.892Z,82.60
2017-05-26T23:33:05.367Z,82.70
2017-05-26T23:35:35.940Z,82.90
2017-05-26T23:38:06.393Z,83.50
2017-05-26T23:40:36.896Z,83.80
2017-05-26T23:43:07.405Z,83.90
2017-05-26T23:45:37.888Z,84.10
2017-05-26T23:48:08.453Z,84.30
2017-05-26T23:50:38.897Z,84.50
2017-05-26T23:53:09.364Z,84.80
2017-05-26T23:55:39.892Z,85.00
2017-05-26T23:58:10.363Z,85.00
